Time;durP1;ratioP1;P1;durP2;ratioP2;P2;SDS_P1;SDS_P2;PMS_P1;PMS_P2;Temp;Humidity;BMP_temperature;BMP_pressure;BME280_temperature;BME280_humidity;BME280_pressure;Samples;Min_cycle;Max_cycle;Signal;HPM_P1;HPM_P2
2023/06/25 00:01:51;;;;;;;16.25;12.50;;;;;;;21.80;72.18;101749.53;3573545;40;20068;-70
2023/06/25 00:04:17;;;;;;;15.00;12.75;;;;;;;21.79;72.38;101764.25;3571445;40;20065;-69
2023/06/25 00:06:42;;;;;;;15.23;13.60;;;;;;;21.71;72.70;101756.75;3572229;40;20056;-70
2023/06/25 00:09:09;;;;;;;17.88;13.90;;;;;;;21.64;73.53;101754.75;3569059;40;20075;-71
2023/06/25 00:11:34;;;;;;;17.75;14.25;;;;;;;21.61;74.09;101746.81;3576937;40;20060;-70
2023/06/25 00:14:02;;;;;;;17.77;14.57;;;;;;;21.57;74.44;101748.97;3561113;40;20886;-70
2023/06/25 00:16:29;;;;;;;17.13;14.50;;;;;;;21.52;74.39;101749.38;3576735;40;20056;-70
2023/06/25 00:18:56;;;;;;;19.00;16.38;;;;;;;21.43;74.86;101747.50;3576105;40;20052;-70
2023/06/25 00:21:22;;;;;;;17.60;15.70;;;;;;;21.44;76.06;101743.78;3574334;40;20056;-70
2023/06/25 00:23:48;;;;;;;16.13;13.68;;;;;;;20.69;76.71;101627.69;3574597;40;20064;-69
2023/06/25 00:26:14;;;;;;;15.90;13.65;;;;;;;21.33;76.99;101744.75;3573545;40;20514;-70
2023/06/25 00:28:39;;;;;;;16.75;14.73;;;;;;;21.29;76.94;101739.72;3561558;40;20129;-69
2023/06/25 00:31:05;;;;;;;20.30;14.55;;;;;;;21.27;77.06;101744.44;3570547;40;20063;-70
2023/06/25 00:33:32;;;;;;;15.82;12.95;;;;;;;21.09;77.57;101723.28;3574073;40;20067;-70
2023/06/25 00:35:57;;;;;;;17.92;13.63;;;;;;;21.19;77.28;101739.69;3570485;40;20056;-71
2023/06/25 00:38:23;;;;;;;19.33;15.77;;;;;;;21.15;77.82;101732.75;3571460;40;20129;-70
2023/06/25 00:40:50;;;;;;;17.33;15.13;;;;;;;21.10;78.36;101733.19;3571862;40;20653;-69
2023/06/25 00:43:20;;;;;;;17.42;15.07;;;;;;;21.03;78.76;101723.00;3571878;40;20653;-70
2023/06/25 00:45:46;;;;;;;21.00;15.18;;;;;;;20.95;79.37;101715.47;3571435;40;20056;-71
2023/06/25 00:48:13;;;;;;;17.33;15.52;;;;;;;20.96;79.67;101728.13;3569684;40;20465;-70
2023/06/25 00:50:39;;;;;;;17.10;14.95;;;;;;;20.89;81.07;101726.09;3570916;40;20072;-71
2023/06/25 00:53:08;;;;;;;16.98;14.57;;;;;;;20.86;80.59;101721.78;3571432;40;20161;-71
2023/06/25 00:55:35;;;;;;;17.45;14.55;;;;;;;20.82;80.75;101720.34;3570754;40;20129;-70
2023/06/25 00:58:01;;;;;;;16.58;14.75;;;;;;;20.79;80.26;101717.88;3571923;40;20052;-71
2023/06/25 01:00:28;;;;;;;16.77;14.38;;;;;;;20.73;80.54;101721.16;3573436;40;20139;-70
2023/06/25 01:03:36;;;;;;;17.25;14.80;;;;;;;20.55;80.75;101701.84;3569984;40;20064;-71
2023/06/25 01:06:30;;;;;;;17.17;14.40;;;;;;;20.64;80.84;101706.47;3568883;40;20048;-71
2023/06/25 01:09:00;;;;;;;20.05;17.15;;;;;;;20.64;80.85;101701.00;3573196;40;20056;-70
2023/06/25 01:11:29;;;;;;;20.40;15.73;;;;;;;20.63;80.62;101711.06;3573340;40;20413;-70
2023/06/25 01:13:55;;;;;;;19.55;15.75;;;;;;;20.60;80.25;101708.63;3574436;39;20075;-70
2023/06/25 01:16:21;;;;;;;22.40;18.10;;;;;;;20.58;80.18;101710.66;3566674;40;20471;-70
2023/06/25 01:18:48;;;;;;;20.83;16.45;;;;;;;20.54;80.99;101705.56;3569338;40;20136;-70
2023/06/25 01:21:17;;;;;;;22.90;16.88;;;;;;;20.28;80.87;101666.94;3570902;40;20117;-70
2023/06/25 01:23:43;;;;;;;17.92;15.48;;;;;;;20.46;80.88;101694.47;3569884;40;20052;-70
2023/06/25 01:26:09;;;;;;;18.95;15.77;;;;;;;20.45;81.29;101696.31;3572140;40;20355;-70
2023/06/25 01:28:34;;;;;;;18.45;15.90;;;;;;;20.45;80.61;101700.91;3571707;40;20064;-70
2023/06/25 01:31:02;;;;;;;19.95;16.83;;;;;;;20.21;80.60;101660.28;3569654;40;20066;-71
2023/06/25 01:33:28;;;;;;;20.85;16.58;;;;;;;20.39;81.69;101688.66;3568916;39;20462;-70
2023/06/25 01:35:54;;;;;;;20.45;17.20;;;;;;;20.37;81.69;101685.22;3570525;40;20067;-71
2023/06/25 01:38:20;;;;;;;23.13;17.83;;;;;;;20.33;81.08;101681.00;3570061;40;20068;-71
2023/06/25 01:40:46;;;;;;;19.23;16.02;;;;;;;20.25;82.21;101684.44;3574980;40;20076;-70
2023/06/25 01:43:11;;;;;;;19.75;15.90;;;;;;;20.22;81.82;101679.25;3572094;40;20363;-70
2023/06/25 01:45:37;;;;;;;19.08;16.35;;;;;;;19.45;82.39;101541.41;3571044;40;20072;-70
2023/06/25 01:48:03;;;;;;;20.17;16.23;;;;;;;20.19;82.49;101674.06;3570532;40;20097;-70
2023/06/25 01:50:29;;;;;;;20.73;18.23;;;;;;;20.18;82.81;101670.47;3571349;40;20095;-69
2023/06/25 01:52:55;;;;;;;21.50;19.02;;;;;;;20.15;83.26;101662.56;3573123;40;20093;-69
2023/06/25 01:55:20;;;;;;;21.27;17.80;;;;;;;20.11;83.49;101661.13;3569933;40;20439;-69
2023/06/25 01:57:46;;;;;;;21.13;18.33;;;;;;;20.07;82.99;101665.09;3571855;40;20048;-70
2023/06/25 02:00:13;;;;;;;20.25;17.98;;;;;;;20.04;83.16;101662.63;3567642;40;20292;-73
2023/06/25 02:02:38;;;;;;;18.70;16.60;;;;;;;19.99;83.33;101650.41;3574610;40;20347;-71
2023/06/25 02:05:04;;;;;;;20.42;17.13;;;;;;;19.88;82.64;101626.78;3568935;40;20071;-73
2023/06/25 02:07:30;;;;;;;21.27;17.90;;;;;;;20.04;82.34;101648.13;3573124;40;20060;-72
2023/06/25 02:09:56;;;;;;;21.00;17.38;;;;;;;19.98;82.76;101637.75;3560401;40;20102;-73
2023/06/25 02:12:22;;;;;;;20.52;17.83;;;;;;;19.96;83.41;101643.38;3560434;40;20061;-70
2023/06/25 02:14:48;;;;;;;24.02;21.08;;;;;;;;;;3575058;40;20056;-70
2023/06/25 02:17:13;;;;;;;23.50;18.75;;;;;;;19.23;83.15;101525.22;3574453;40;20072;-71
2023/06/25 02:19:39;;;;;;;20.35;17.88;;;;;;;19.88;83.51;101634.97;3577229;40;20055;-72
2023/06/25 02:22:05;;;;;;;21.55;17.33;;;;;;;19.82;83.44;101639.13;3563890;40;20059;-74
2023/06/25 02:24:31;;;;;;;19.67;16.65;;;;;;;19.43;83.72;101573.38;3566643;40;20068;-72
2023/06/25 02:26:57;;;;;;;21.95;18.20;;;;;;;19.78;84.82;101625.88;3561298;40;20068;-72
2023/06/25 02:29:22;;;;;;;20.13;17.40;;;;;;;19.77;85.13;101624.16;3571178;40;20060;-72
2023/06/25 02:31:48;;;;;;;19.70;16.67;;;;;;;19.75;85.33;101626.16;3571617;40;20138;-72
2023/06/25 02:34:16;;;;;;;19.75;16.83;;;;;;;19.51;85.68;101586.38;3575119;40;20072;-73
2023/06/25 02:36:42;;;;;;;19.55;17.45;;;;;;;19.73;85.36;101623.56;3578372;40;20123;-74
2023/06/25 02:39:08;;;;;;;21.45;17.98;;;;;;;19.69;85.93;101611.19;3576761;40;20063;-74
2023/06/25 02:41:34;;;;;;;22.20;18.20;;;;;;;19.67;85.35;101608.59;3575941;40;20087;-73
2023/06/25 02:44:00;;;;;;;23.15;18.60;;;;;;;19.62;84.94;101609.97;3576254;40;20059;-73
2023/06/25 02:46:25;;;;;;;22.17;18.35;;;;;;;19.55;85.36;101609.66;3575681;40;20052;-74
2023/06/25 02:48:51;;;;;;;22.60;18.63;;;;;;;19.54;85.94;101613.38;3561352;40;20296;-74
2023/06/25 02:51:17;;;;;;;21.67;19.23;;;;;;;19.54;85.97;101607.06;3575086;40;20075;-72
2023/06/25 02:53:42;;;;;;;23.13;18.20;;;;;;;19.50;84.58;101617.34;3576389;40;20072;-73
2023/06/25 02:56:08;;;;;;;22.08;19.15;;;;;;;19.37;84.35;101583.97;3575229;40;20060;-71
2023/06/25 02:58:34;;;;;;;24.02;18.95;;;;;;;19.48;85.43;101611.19;3572467;40;20130;-73
2023/06/25 03:00:59;;;;;;;22.38;19.55;;;;;;;19.44;84.76;101616.03;3574391;40;20047;-73
2023/06/25 03:03:25;;;;;;;23.02;18.55;;;;;;;19.40;84.69;101606.38;3576868;39;20501;-73
2023/06/25 03:05:51;;;;;;;23.23;18.77;;;;;;;19.37;84.24;101608.50;3578905;40;20131;-73
2023/06/25 03:08:16;;;;;;;22.90;19.05;;;;;;;19.34;84.85;101609.63;3575833;40;20099;-72
2023/06/25 03:10:42;;;;;;;28.95;19.73;;;;;;;19.12;84.87;101575.19;3559695;40;20052;-72
2023/06/25 03:13:08;;;;;;;22.98;19.38;;;;;;;19.19;84.32;101597.34;3574832;40;20104;-72
2023/06/25 03:15:33;;;;;;;21.98;18.88;;;;;;;19.23;84.05;101609.72;3576750;40;20064;-75
2023/06/25 03:17:59;;;;;;;23.50;19.15;;;;;;;19.24;83.75;101606.84;3578940;40;20058;-71
2023/06/25 03:20:25;;;;;;;24.08;19.80;;;;;;;19.21;82.78;101596.19;3576099;40;20133;-71
2023/06/25 03:22:50;;;;;;;25.67;20.80;;;;;;;19.25;82.43;101603.13;3574808;40;20092;-71
2023/06/25 03:25:16;;;;;;;24.92;20.33;;;;;;;19.22;82.73;101600.69;3578183;40;20525;-71
2023/06/25 03:27:42;;;;;;;24.45;21.38;;;;;;;19.18;83.37;101604.63;3577294;40;20057;-69
2023/06/25 03:30:08;;;;;;;24.90;20.27;;;;;;;19.13;83.31;101609.63;3566805;40;20515;-70
2023/06/25 03:32:33;;;;;;;26.25;20.77;;;;;;;19.11;83.71;101606.16;3578228;40;20082;-71
2023/06/25 03:34:59;;;;;;;23.15;20.38;;;;;;;18.85;84.08;101563.94;3578902;40;20060;-69
2023/06/25 03:37:25;;;;;;;27.75;22.33;;;;;;;19.05;84.11;101595.78;3579337;40;20454;-70
2023/06/25 03:39:51;;;;;;;26.50;20.67;;;;;;;19.06;84.55;101596.66;3579023;40;20052;-70
2023/06/25 03:42:17;;;;;;;24.80;21.73;;;;;;;19.04;83.71;101595.94;3574605;40;20341;-70
2023/06/25 03:44:51;;;;;;;24.33;21.42;;;;;;;19.00;84.88;101598.06;3572466;40;20067;-70
2023/06/25 03:47:17;;;;;;;25.77;21.67;;;;;;;18.97;85.12;101595.59;3571795;40;20063;-70
2023/06/25 03:49:43;;;;;;;23.02;20.52;;;;;;;18.95;85.01;101595.72;3570996;40;20060;-70
2023/06/25 03:52:09;;;;;;;24.90;20.92;;;;;;;18.72;84.80;101554.09;3569096;40;20351;-70
2023/06/25 03:54:35;;;;;;;28.38;23.02;;;;;;;18.95;84.79;101586.69;3570505;39;20108;-70
2023/06/25 03:57:00;;;;;;;27.40;23.02;;;;;;;18.99;84.85;101589.00;3573209;40;20395;-70
2023/06/25 03:59:26;;;;;;;29.10;23.00;;;;;;;18.99;84.41;101586.28;3574608;40;20060;-70
2023/06/25 04:01:52;;;;;;;29.60;23.80;;;;;;;18.95;84.87;101584.81;3567873;40;20513;-70
2023/06/25 04:04:17;;;;;;;27.42;22.48;;;;;;;18.76;85.15;101552.81;3575430;40;20056;-70
2023/06/25 04:06:43;;;;;;;29.60;23.98;;;;;;;18.92;85.50;101581.50;3575113;40;20056;-70
2023/06/25 04:09:08;;;;;;;27.65;22.42;;;;;;;18.88;84.67;101578.16;3574116;40;20326;-70
2023/06/25 04:11:34;;;;;;;27.05;23.40;;;;;;;19.00;84.93;101587.16;3579630;40;20052;-72
2023/06/25 04:14:00;;;;;;;25.77;21.88;;;;;;;19.01;84.11;101583.44;3577783;40;20362;-69
2023/06/25 04:16:25;;;;;;;26.17;22.48;;;;;;;19.05;82.89;101595.78;3566428;40;20083;-69
2023/06/25 04:18:51;;;;;;;29.27;21.58;;;;;;;19.07;83.57;101590.22;3575152;40;20099;-69
2023/06/25 04:21:17;;;;;;;26.05;21.98;;;;;;;19.11;83.52;101592.53;3577192;40;20085;-70
2023/06/25 04:23:42;;;;;;;23.80;20.90;;;;;;;18.78;83.61;101522.75;3573199;40;20055;-70
2023/06/25 04:26:08;;;;;;;26.27;21.00;;;;;;;19.24;83.37;101589.63;3569441;40;20140;-70
2023/06/25 04:28:33;;;;;;;25.63;19.67;;;;;;;19.33;82.01;101583.38;3565687;40;20474;-69
2023/06/25 04:30:59;;;;;;;30.95;20.52;;;;;;;19.40;82.23;101586.44;3574977;40;20385;-70
2023/06/25 04:33:25;;;;;;;25.23;20.45;;;;;;;19.25;80.83;101551.34;3576816;40;20071;-70
2023/06/25 04:35:50;;;;;;;24.83;19.95;;;;;;;19.37;80.37;101570.34;3575591;40;20056;-70
2023/06/25 04:38:16;;;;;;;23.42;19.55;;;;;;;19.51;80.27;101585.50;3575150;40;20347;-70
2023/06/25 04:40:42;;;;;;;23.92;20.13;;;;;;;19.56;80.42;101588.69;3575198;40;20056;-69
2023/06/25 04:43:07;;;;;;;22.30;19.55;;;;;;;19.61;81.09;101580.97;3572969;40;20176;-69
2023/06/25 04:45:33;;;;;;;22.50;19.38;;;;;;;19.66;80.37;101584.16;3574078;40;20103;-68
2023/06/25 04:47:58;;;;;;;24.92;20.90;;;;;;;19.69;79.14;101586.63;3574809;40;20336;-69
2023/06/25 04:50:24;;;;;;;23.75;20.27;;;;;;;19.72;78.74;101594.53;3579475;40;20358;-68
2023/06/25 04:52:53;;;;;;;23.08;19.67;;;;;;;19.77;79.23;101586.81;3576353;40;20071;-68
2023/06/25 04:55:19;;;;;;;24.23;20.55;;;;;;;19.81;79.03;101581.97;3566432;40;20076;-69
2023/06/25 04:57:44;;;;;;;24.20;20.30;;;;;;;19.73;79.34;101570.84;3576124;40;20085;-70
2023/06/25 05:00:11;;;;;;;23.83;21.23;;;;;;;19.88;79.00;101589.44;3573734;40;20466;-70
2023/06/25 05:02:37;;;;;;;23.55;20.77;;;;;;;19.92;78.40;101584.59;3574785;40;20060;-69
2023/06/25 05:05:02;;;;;;;24.85;21.13;;;;;;;20.01;78.19;101582.91;3572320;40;20484;-69
2023/06/25 05:07:28;;;;;;;25.15;21.35;;;;;;;20.02;78.55;101580.03;3575233;40;20068;-69
2023/06/25 05:09:54;;;;;;;22.90;20.23;;;;;;;19.84;77.56;101546.22;3574761;40;20543;-69
2023/06/25 05:12:19;;;;;;;22.45;20.05;;;;;;;20.13;77.62;101582.66;3562253;40;20053;-70
2023/06/25 05:14:45;;;;;;;22.33;19.80;;;;;;;20.20;77.15;101582.09;3571232;40;20079;-69
2023/06/25 05:17:11;;;;;;;21.98;19.23;;;;;;;20.25;77.15;101591.59;3571930;40;20048;-68
2023/06/25 05:19:36;;;;;;;22.38;19.98;;;;;;;20.23;76.84;101577.22;3574168;40;20237;-69
2023/06/25 05:22:04;;;;;;;21.58;19.38;;;;;;;20.36;77.17;101590.63;3571664;40;20169;-71
2023/06/25 05:24:31;;;;;;;22.92;19.42;;;;;;;20.42;76.43;101584.59;3573189;40;20048;-68
2023/06/25 05:26:56;;;;;;;21.50;18.77;;;;;;;20.46;76.04;101586.06;3580234;40;20109;-67
2023/06/25 05:29:22;;;;;;;22.05;18.10;;;;;;;20.53;75.94;101581.78;3573183;40;20429;-70
2023/06/25 05:31:48;;;;;;;20.27;17.92;;;;;;;20.56;75.85;101584.25;3574227;40;20052;-68
2023/06/25 05:34:13;;;;;;;20.42;17.95;;;;;;;20.63;75.48;101579.94;3575408;40;20060;-68
2023/06/25 05:36:39;;;;;;;18.65;16.40;;;;;;;20.64;73.73;101581.66;3568479;40;20067;-68
2023/06/25 05:39:05;;;;;;;17.65;15.75;;;;;;;20.75;72.33;101590.75;3572391;40;20097;-69
2023/06/25 05:41:30;;;;;;;17.42;15.15;;;;;;;20.50;71.96;101535.59;3573232;40;20454;-68
2023/06/25 05:43:56;;;;;;;17.20;15.20;;;;;;;20.90;71.62;101591.16;3573673;40;20469;-68
2023/06/25 05:46:22;;;;;;;17.40;14.93;;;;;;;20.96;70.35;101585.97;3569061;40;20408;-68
2023/06/25 05:48:48;;;;;;;17.13;15.27;;;;;;;20.71;70.54;101520.97;3574924;40;20066;-68
2023/06/25 05:51:13;;;;;;;17.00;14.55;;;;;;;20.81;70.89;101527.31;3571510;40;20367;-68
2023/06/25 05:53:43;;;;;;;15.63;14.07;;;;;;;21.19;70.39;101575.63;3574792;40;20064;-69
2023/06/25 05:56:10;;;;;;;15.63;13.93;;;;;;;21.06;70.18;101532.19;3573656;40;20146;-69
2023/06/25 05:58:36;;;;;;;16.63;13.98;;;;;;;21.35;68.56;101566.84;3574721;40;20056;-70
2023/06/25 06:01:05;;;;;;;15.23;13.50;;;;;;;21.50;67.49;101565.41;3572031;40;20288;-69
2023/06/25 06:03:31;;;;;;;15.90;12.70;;;;;;;21.59;66.46;101566.34;3574286;40;20153;-69
2023/06/25 06:05:59;;;;;;;14.38;12.35;;;;;;;21.46;65.97;101522.03;3573561;40;20740;-69
2023/06/25 06:08:25;;;;;;;13.57;12.15;;;;;;;21.88;64.55;101582.66;3575106;40;20405;-69
2023/06/25 06:10:51;;;;;;;19.77;17.65;;;;;;;21.95;64.13;101561.91;3574217;40;20091;-68
2023/06/25 06:13:16;;;;;;;12.95;11.43;;;;;;;22.16;62.86;101575.38;3567339;40;20066;-69
2023/06/25 06:15:42;;;;;;;12.45;11.13;;;;;;;22.35;61.85;101579.88;3575110;40;20342;-70
2023/06/25 06:18:08;;;;;;;12.70;10.57;;;;;;;22.48;60.53;101591.31;3573574;40;20367;-69
2023/06/25 06:20:34;;;;;;;11.23;10.13;;;;;;;22.63;60.24;101575.22;3574749;40;20092;-69
2023/06/25 06:23:02;;;;;;;12.15;9.90;;;;;;;22.83;60.31;101584.16;3569974;40;20570;-70
2023/06/25 06:25:27;;;;;;;10.00;8.88;;;;;;;22.99;58.57;101577.13;3564842;40;20048;-70
2023/06/25 06:27:54;;;;;;;10.43;9.32;;;;;;;23.14;56.19;101581.91;3575861;40;20418;-68
2023/06/25 06:30:21;;;;;;;10.38;8.80;;;;;;;23.32;56.11;101590.13;3575320;40;20242;-69
2023/06/25 06:32:47;;;;;;;9.68;8.63;;;;;;;23.49;55.54;101573.75;3577532;40;20052;-70
2023/06/25 06:35:13;;;;;;;10.60;8.38;;;;;;;23.69;56.01;101579.91;3577020;40;20061;-71
2023/06/25 06:37:38;;;;;;;10.18;7.88;;;;;;;23.82;54.24;101562.00;3575895;40;20052;-71
2023/06/25 06:40:05;;;;;;;9.73;8.43;;;;;;;24.01;52.64;101571.03;3572900;40;20286;-73
2023/06/25 06:42:31;;;;;;;9.80;7.85;;;;;;;24.18;52.97;101572.81;3575262;40;20303;-74
2023/06/25 06:44:56;;;;;;;9.23;7.32;;;;;;;24.36;53.08;101572.72;3575732;40;20399;-73
2023/06/25 06:47:22;;;;;;;9.90;8.00;;;;;;;24.46;51.95;101558.84;3576230;40;20283;-73
2023/06/25 06:49:48;;;;;;;7.60;6.80;;;;;;;24.60;49.51;101552.69;3576104;40;20560;-72
2023/06/25 06:52:15;;;;;;;7.30;5.95;;;;;;;24.88;48.40;101571.63;3573012;40;20057;-73
2023/06/25 06:54:41;;;;;;;8.15;5.60;;;;;;;25.02;47.05;101565.44;3559606;40;20053;-73
2023/06/25 06:57:06;;;;;;;6.82;5.32;;;;;;;25.20;44.45;101566.16;3573763;40;20427;-72
2023/06/25 06:59:32;;;;;;;7.80;5.15;;;;;;;25.38;44.53;101565.97;3574468;40;20044;-72
2023/06/25 07:01:57;;;;;;;5.88;4.70;;;;;;;25.43;44.99;101544.28;3574301;40;20080;-72
2023/06/25 07:04:23;;;;;;;6.55;4.82;;;;;;;25.68;43.03;101563.50;3576443;40;20060;-73
2023/06/25 07:06:49;;;;;;;5.93;4.70;;;;;;;25.63;42.86;101543.91;3578436;40;20088;-74
2023/06/25 07:09:22;;;;;;;5.45;4.40;;;;;;;25.92;42.71;101566.22;3575014;40;20076;-73
2023/06/25 07:11:48;;;;;;;5.53;4.40;;;;;;;26.02;43.87;101559.66;3571440;40;20150;-74
2023/06/25 07:14:14;;;;;;;6.72;4.70;;;;;;;26.19;42.25;101564.03;3570976;40;20115;-73
2023/06/25 07:16:41;;;;;;;6.43;4.45;;;;;;;26.31;42.44;101562.59;3574649;40;20075;-73
2023/06/25 07:19:08;;;;;;;5.72;4.97;;;;;;;26.39;42.85;101567.22;3574564;40;20432;-74
2023/06/25 07:21:33;;;;;;;6.03;4.85;;;;;;;26.53;43.12;101574.75;3568194;40;20064;-72
2023/06/25 07:23:59;;;;;;;7.10;4.45;;;;;;;26.61;42.48;101571.97;3570675;40;20119;-73
2023/06/25 07:26:27;;;;;;;7.20;4.97;;;;;;;26.63;41.62;101564.34;3570306;40;20067;-73
2023/06/25 07:28:52;;;;;;;5.60;4.93;;;;;;;26.71;42.30;101566.19;3570857;40;20055;-73
2023/06/25 07:31:18;;;;;;;5.88;4.85;;;;;;;26.72;42.35;101564.28;3572814;40;20096;-74
2023/06/25 07:33:44;;;;;;;5.88;4.78;;;;;;;26.62;42.11;101540.56;3570329;40;21747;-72
2023/06/25 07:36:10;;;;;;;6.68;4.95;;;;;;;26.93;41.93;101561.72;3571239;40;21151;-72
2023/06/25 07:38:35;;;;;;;5.35;4.85;;;;;;;26.94;42.70;101560.69;3572043;40;20072;-73
2023/06/25 07:41:01;;;;;;;7.90;5.63;;;;;;;27.07;42.49;101552.63;3571673;40;20071;-73
2023/06/25 07:43:27;;;;;;;5.75;4.78;;;;;;;27.17;42.70;101554.31;3573746;40;20064;-72
2023/06/25 07:45:53;;;;;;;5.85;5.20;;;;;;;26.81;42.31;101484.03;3571056;40;20044;-73
2023/06/25 07:48:18;;;;;;;5.45;4.50;;;;;;;27.36;43.78;101553.78;3563390;40;20068;-73
2023/06/25 07:50:44;;;;;;;5.88;5.10;;;;;;;27.50;42.46;101560.38;3573280;40;20075;-74
2023/06/25 07:53:10;;;;;;;6.10;4.60;;;;;;;27.55;41.88;101536.66;3568360;40;20076;-73
2023/06/25 07:55:41;;;;;;;5.32;4.25;;;;;;;27.64;42.17;101539.34;3571638;40;20669;-73
2023/06/25 07:58:08;;;;;;;5.22;4.72;;;;;;;27.72;43.00;101528.19;3571242;40;20107;-72
2023/06/25 08:00:37;;;;;;;5.47;4.70;;;;;;;27.85;41.10;101525.66;3571098;40;20060;-73
2023/06/25 08:03:03;;;;;;;5.18;4.68;;;;;;;28.08;41.49;101546.78;3572182;40;20055;-73
2023/06/25 08:05:29;;;;;;;6.47;4.70;;;;;;;28.21;41.57;101545.03;3570258;40;20056;-73
2023/06/25 08:07:58;;;;;;;9.32;4.40;;;;;;;28.39;43.03;101547.41;3573214;40;20079;-73
2023/06/25 08:10:24;;;;;;;5.53;4.47;;;;;;;28.37;41.57;101524.59;3570740;40;20049;-72
2023/06/25 08:12:53;;;;;;;5.80;4.93;;;;;;;28.10;40.90;101450.69;3573157;40;20044;-73
2023/06/25 08:15:20;;;;;;;5.60;4.13;;;;;;;28.83;42.43;101551.06;3572485;40;20060;-72
2023/06/25 08:17:47;;;;;;;5.45;4.93;;;;;;;28.76;40.21;101505.88;3574091;40;20587;-72
2023/06/25 08:20:13;;;;;;;5.03;4.53;;;;;;;28.99;41.31;101549.94;3574564;40;20572;-72
2023/06/25 08:22:38;;;;;;;8.98;4.95;;;;;;;28.22;41.14;101405.75;3569560;40;20068;-73
2023/06/25 08:25:26;;;;;;;4.65;4.25;;;;;;;29.08;40.74;101529.41;3570655;40;20388;-73
2023/06/25 08:27:52;;;;;;;7.47;4.47;;;;;;;29.29;41.24;101545.16;3570373;40;20053;-72
2023/06/25 08:30:18;;;;;;;4.50;4.10;;;;;;;29.48;40.42;101538.03;3572640;40;20064;-74
2023/06/25 08:32:44;;;;;;;4.57;4.05;;;;;;;29.65;40.17;101533.91;3570712;40;20072;-72
2023/06/25 08:35:10;;;;;;;4.50;4.10;;;;;;;29.52;39.25;101489.47;3570356;40;20070;-72
2023/06/25 08:37:36;;;;;;;4.22;3.80;;;;;;;29.78;39.48;101522.94;3571137;40;20071;-73
2023/06/25 08:40:02;;;;;;;6.55;5.78;;;;;;;29.99;39.57;101537.75;3568929;40;20080;-73
2023/06/25 08:42:29;;;;;;;4.25;3.85;;;;;;;29.92;38.72;101540.47;3570717;40;20541;-72
2023/06/25 08:44:57;;;;;;;5.00;4.50;;;;;;;29.87;40.48;101520.81;3575381;40;20062;-73
2023/06/25 08:47:27;;;;;;;5.00;4.32;;;;;;;29.89;37.48;101512.31;3569949;40;20072;-71
2023/06/25 08:49:54;;;;;;;5.03;4.40;;;;;;;30.09;38.85;101527.09;3572836;40;20132;-72
2023/06/25 08:52:20;;;;;;;4.68;4.15;;;;;;;30.26;39.91;101503.53;3566914;40;20047;-72
2023/06/25 08:54:47;;;;;;;4.13;3.83;;;;;;;29.80;37.33;101398.81;3562966;40;20207;-73
2023/06/25 08:57:13;;;;;;;3.83;3.53;;;;;;;30.61;37.27;101522.00;3571888;40;20395;-72
2023/06/25 08:59:38;;;;;;;4.63;4.05;;;;;;;30.80;37.58;101525.88;3569483;40;20068;-73
2023/06/25 09:02:04;;;;;;;4.30;3.70;;;;;;;30.91;37.47;101523.31;3573114;40;20071;-73
2023/06/25 09:04:30;;;;;;;5.55;3.80;;;;;;;30.98;36.42;101518.63;3568162;40;20402;-72
2023/06/25 09:07:08;;;;;;;4.60;4.00;;;;;;;31.04;36.68;101516.91;3564279;40;20462;-73
2023/06/25 09:09:34;;;;;;;4.25;3.95;;;;;;;31.13;36.46;101518.41;3571923;40;20060;-72
2023/06/25 09:12:00;;;;;;;4.78;3.85;;;;;;;31.18;36.01;101490.88;3570685;40;20129;-72
2023/06/25 09:14:27;;;;;;;5.13;3.78;;;;;;;31.34;35.88;101488.75;3569072;40;20165;-73
2023/06/25 09:16:54;;;;;;;5.85;4.07;;;;;;;31.66;35.11;101510.03;3567674;40;20383;-71
2023/06/25 09:19:21;;;;;;;5.53;4.00;;;;;;;31.55;34.56;101480.13;3571854;40;20132;-72
2023/06/25 09:21:48;;;;;;;5.35;3.90;;;;;;;31.61;35.25;101484.81;3562737;40;20060;-71
2023/06/25 09:24:17;;;;;;;4.43;3.80;;;;;;;31.81;36.00;101508.91;3562144;40;20060;-72
2023/06/25 09:26:47;;;;;;;5.82;4.10;;;;;;;31.92;33.94;101508.28;3564306;40;20067;-71
2023/06/25 09:29:15;;;;;;;5.03;3.85;;;;;;;31.99;35.33;101508.25;3572767;40;20212;-72
2023/06/25 09:31:43;;;;;;;3.92;3.60;;;;;;;32.00;33.30;101508.06;3569766;40;20645;-72
2023/06/25 09:34:10;;;;;;;5.05;4.53;;;;;;;32.08;33.70;101493.88;3569306;40;20064;-72
2023/06/25 09:36:36;;;;;;;5.03;4.47;;;;;;;32.20;34.05;101502.38;3560310;40;20568;-73
2023/06/25 09:39:06;;;;;;;4.38;3.80;;;;;;;32.30;33.15;101511.09;3574999;40;20412;-73
2023/06/25 09:41:40;;;;;;;5.03;4.22;;;;;;;32.36;33.41;101509.38;3561062;40;20087;-70
2023/06/25 09:44:06;;;;;;;4.00;3.55;;;;;;;32.40;32.98;101505.06;3571358;40;20063;-72
2023/06/25 09:46:34;;;;;;;3.83;3.42;;;;;;;32.48;32.55;101503.94;3570588;40;20055;-73
2023/06/25 09:49:01;;;;;;;5.18;3.78;;;;;;;32.45;32.64;101496.94;3569621;40;20049;-73
2023/06/25 09:51:56;;;;;;;5.90;4.00;;;;;;;32.53;32.31;101493.84;3571181;40;20044;-72
2023/06/25 09:54:24;;;;;;;4.00;3.70;;;;;;;32.68;33.28;101489.91;3572590;40;20092;-73
2023/06/25 09:56:53;;;;;;;4.00;3.70;;;;;;;32.70;31.91;101494.19;3568410;40;20056;-72
2023/06/25 09:59:19;;;;;;;4.45;4.00;;;;;;;32.74;31.85;101477.88;3572836;40;20087;-73
2023/06/25 10:01:45;;;;;;;4.50;3.70;;;;;;;32.92;31.59;101497.44;3563292;40;20099;-72
2023/06/25 10:04:10;;;;;;;4.85;3.90;;;;;;;33.00;32.10;101487.97;3580559;40;20055;-73
2023/06/25 10:06:37;;;;;;;4.78;3.65;;;;;;;33.06;32.04;101489.84;3572920;40;20060;-73
2023/06/25 10:09:05;;;;;;;3.95;3.58;;;;;;;33.14;30.91;101483.13;3572912;40;20052;-72
2023/06/25 10:11:32;;;;;;;4.60;4.18;;;;;;;33.15;31.12;101482.91;3575040;40;20465;-72
2023/06/25 10:14:01;;;;;;;4.00;3.63;;;;;;;33.27;31.10;101475.50;3573941;40;20040;-73
2023/06/25 10:16:32;;;;;;;4.53;3.70;;;;;;;33.28;30.68;101476.34;3573017;40;20496;-71
2023/06/25 10:18:58;;;;;;;3.85;3.42;;;;;;;33.32;30.15;101480.38;3574045;40;20423;-73
2023/06/25 10:21:27;;;;;;;6.43;3.70;;;;;;;33.26;29.98;101475.72;3570545;40;20362;-72
2023/06/25 10:24:00;;;;;;;4.00;3.55;;;;;;;33.32;30.61;101476.75;3570377;40;20051;-73
2023/06/25 10:26:32;;;;;;;4.95;3.53;;;;;;;33.41;30.07;101462.28;3569207;40;20061;-72
2023/06/25 10:29:10;;;;;;;9.05;4.18;;;;;;;33.44;29.71;101463.75;3573935;40;20493;-72
2023/06/25 10:31:38;;;;;;;4.07;3.67;;;;;;;33.62;31.11;101471.28;3567934;40;20571;-73
2023/06/25 10:34:07;;;;;;;4.53;3.58;;;;;;;33.75;29.85;101468.38;3568210;40;20439;-72
2023/06/25 10:36:32;;;;;;;4.90;3.97;;;;;;;33.95;29.16;101468.09;3569113;40;20056;-73
2023/06/25 10:38:58;;;;;;;3.88;3.58;;;;;;;33.89;28.62;101439.19;3572343;40;20468;-72
2023/06/25 10:41:32;;;;;;;4.07;3.67;;;;;;;34.08;29.05;101470.75;3569161;40;20391;-73
2023/06/25 10:44:00;;;;;;;4.22;3.92;;;;;;;34.15;29.14;101454.75;3571844;40;20064;-73
2023/06/25 10:46:31;;;;;;;3.65;3.45;;;;;;;34.26;28.76;101461.47;3573440;40;20067;-72
2023/06/25 10:49:00;;;;;;;5.95;3.70;;;;;;;34.25;28.44;101459.75;3571786;40;20395;-72
2023/06/25 10:51:28;;;;;;;6.60;3.90;;;;;;;34.28;27.92;101462.06;3571558;40;20056;-71
2023/06/25 10:53:55;;;;;;;3.90;3.60;;;;;;;34.11;29.11;101424.78;3573515;40;20056;-73
2023/06/25 10:56:23;;;;;;;4.18;3.75;;;;;;;34.27;28.40;101451.16;3574221;40;20395;-72
2023/06/25 10:58:58;;;;;;;3.75;3.35;;;;;;;34.23;26.19;101456.38;3574776;40;20467;-72
2023/06/25 11:01:31;;;;;;;3.42;3.13;;;;;;;34.07;28.20;101415.19;3571266;40;20177;-73
2023/06/25 11:03:58;;;;;;;4.35;3.97;;;;;;;34.36;28.37;101442.22;3570657;40;20497;-71
2023/06/25 11:06:24;;;;;;;3.60;3.40;;;;;;;34.40;27.44;101440.63;3556381;40;20059;-72
2023/06/25 11:08:50;;;;;;;4.70;4.28;;;;;;;34.39;27.26;101440.88;3577126;40;20064;-72
2023/06/25 11:11:15;;;;;;;4.45;4.03;;;;;;;34.31;27.45;101430.06;3573553;40;20126;-72
2023/06/25 11:13:41;;;;;;;4.45;4.15;;;;;;;34.43;28.28;101431.78;3573268;40;20076;-73
2023/06/25 11:16:07;;;;;;;4.38;3.97;;;;;;;34.65;28.09;101425.69;3577146;40;20053;-73